x

Devils Island, Wi (disw3) Weather Station

5:00pm - Sun 1st Feb 2015 All times are CST. -6 hours from GMT.

  • Wind
    10mph, 14mph gusts
  • Air Temp 10°f
  • Sea Pressure 1027.9mb
  • Devils Island, Wi
  • Devils Island, Wi

More Historic Weather Station data

Upgrade to MSW Pro to gain access to the past 30 days of data for over 8000 Wavebouys and Weather Stations around the globe.

Join Pro

Comparision Forecast

View Surf forecast
   
Sun 02/01 5:00pm 10 14 mph 1027.9mb 10f
4:00pm 11 14 mph 1028.2mb 9f
3:00pm 13 15 mph 1028.5mb 9f
2:00pm 17 21 mph 1028.9mb 9f
1:00pm 16 18 mph 1029.8mb 8f
12:00pm 18 22 mph 1030.7mb 8f
11:00am 15 18 mph 1031.3mb 8f
10:00am 18 23 mph 1031.7mb 9f
9:00am 21 23 mph 1031.4mb 9f
8:00am 22 25 mph 1031.1mb 9f
7:00am 21 24 mph 1031mb 9f
6:00am 24 28 mph 1030.8mb 10f
5:00am 23 26 mph 1031mb 10f
4:00am 17 23 mph 1031.1mb 11f
3:00am 23 28 mph 1031.1mb 12f
2:00am 23 26 mph 1031.3mb 11f
1:00am 24 29 mph 1030.8mb 12f
12:00am 25 30 mph 1030.9mb 13f
Sat 01/31 11:00pm 26 32 mph 1030.2mb 13f
10:00pm 28 31 mph 1029.6mb 15f
9:00pm 23 29 mph 1029.5mb 15f
8:00pm 23 29 mph 1029.4mb 16f
7:00pm 17 21 mph 1029.8mb 17f
6:00pm 16 20 mph 1029.1mb 17f
5:00pm 13 17 mph 1028.4mb 17f
4:00pm 14 16 mph 1028.1mb 17f
3:00pm 15 20 mph 1027.5mb 17f
2:00pm 13 16 mph 1027mb 17f
1:00pm 15 20 mph 1026.7mb 17f
12:00pm 18 22 mph 1026.4mb 17f
11:00am 15 17 mph 1026.2mb 18f
10:00am 20 23 mph 1025.4mb 18f
9:00am 22 24 mph 1024.4mb 20f
8:00am 16 18 mph 1023.7mb 23f
7:00am 14 16 mph 1022.5mb 24f
6:00am 14 16 mph 1021.7mb 24f
5:00am 14 17 mph 1021.2mb 24f
4:00am 16 21 mph 1020.5mb 25f
3:00am 17 20 mph 1020.7mb 24f
2:00am 16 21 mph 1020.9mb 23f
1:00am 16 18 mph 1021.2mb 21f
12:00am 13 17 mph 1022.1mb 21f
Fri 01/30 11:00pm 11 16 mph 1023.1mb 20f
10:00pm 16 21 mph 1023.7mb 20f
9:00pm 20 24 mph 1024.7mb 20f
8:00pm 11 16 mph 1024.9mb 19f
7:00pm 9 10 mph 1025.4mb 17f
6:00pm 8 10 mph 1026.7mb 17f
5:00pm 7 9 mph 1027.5mb 16f
4:00pm 3 6 mph 1028.4mb 16f
3:00pm 5 7 mph 1029.5mb 16f
2:00pm 9 14 mph 1030.3mb 15f
1:00pm 10 15 mph 1031.5mb 15f
12:00pm 13 15 mph 1032.3mb 14f
11:00am 8 10 mph 1033.3mb 14f
10:00am 10 14 mph 1034mb 13f
9:00am 10 16 mph 1033.9mb 13f
8:00am 10 14 mph 1034.1mb 13f
7:00am 9 15 mph 1034mb 13f
6:00am 8 9 mph 1033.9mb 12f
5:00am 9 10 mph 1034.5mb 12f
4:00am 7 9 mph 1034.7mb 12f
3:00am 10 13 mph 1034.9mb 12f
2:00am 10 14 mph 1034.9mb 12f
1:00am 10 13 mph 1034.5mb 13f
12:00am 13 16 mph 1034.1mb 14f
Thu 01/29 11:00pm 14 17 mph 1033.7mb 14f
10:00pm 23 25 mph 1033.2mb 15f
9:00pm 21 25 mph 1032.8mb 15f
8:00pm 25 30 mph 1032mb 16f
7:00pm 24 31 mph 1030.8mb 17f
6:00pm 26 32 mph 1029mb 19f
5:00pm 26 31 mph 1027.4mb 20f
4:00pm 29 34 mph 1025.7mb 22f
3:00pm 23 28 mph 1024.5mb 23f
2:00pm 29 32 mph 1023.3mb 23f
1:00pm 31 36 mph 1022.2mb 23f
12:00pm 33 36 mph 1021.2mb 25f
11:00am 28 33 mph 1020.3mb 26f
10:00am 31 36 mph 1019mb 27f
9:00am 32 36 mph 1018mb 27f
8:00am 26 29 mph 1016.9mb 29f
7:00am 20 24 mph 1015.3mb 31f
6:00am 30 32 mph 1013.9mb 31f
5:00am 28 30 mph 1012.8mb 31f
4:00am 23 28 mph 1011.7mb 32f
3:00am 17 20 mph 1011.1mb 32f
2:00am 15 18 mph 1010.8mb 31f
1:00am 16 17 mph 1010.7mb 31f